createdAt,value
2018-11-02T00:03:53.500Z,85.11
2018-11-02T00:08:57.060Z,85.37
2018-11-02T00:14:00.477Z,84.07
2018-11-02T00:19:03.824Z,82.90
2018-11-02T00:24:07.237Z,82.35
2018-11-02T00:29:10.587Z,82.83
2018-11-02T00:34:14.644Z,83.06
2018-11-02T00:39:18.069Z,82.47
2018-11-02T00:44:21.459Z,83.84
2018-11-02T00:49:24.861Z,83.70
2018-11-02T00:54:28.243Z,82.69
2018-11-02T00:59:31.598Z,83.86
2018-11-02T01:04:35.119Z,84.79
2018-11-02T01:09:39.022Z,84.62
2018-11-02T01:14:42.356Z,83.39
2018-11-02T01:19:45.798Z,83.52
2018-11-02T01:24:49.222Z,84.15
2018-11-02T01:29:52.590Z,84.63
2018-11-02T01:34:56.545Z,84.76
2018-11-02T01:39:59.904Z,84.81
2018-11-02T01:45:03.419Z,83.30
2018-11-02T01:50:07.034Z,84.95
2018-11-02T01:55:10.390Z,85.00
2018-11-02T02:00:13.841Z,86.47
2018-11-02T02:05:17.400Z,85.60
2018-11-02T02:10:20.763Z,85.06
2018-11-02T02:15:24.168Z,84.78
2018-11-02T02:20:27.575Z,85.64
2018-11-02T02:25:30.941Z,85.53
2018-11-02T02:30:34.295Z,86.01
2018-11-02T02:35:37.816Z,85.78
2018-11-02T02:40:41.331Z,86.76
2018-11-02T02:45:44.662Z,85.78
2018-11-02T02:50:48.009Z,85.81
2018-11-02T02:55:51.369Z,85.64
2018-11-02T03:00:54.749Z,86.53
2018-11-02T03:05:58.102Z,86.05
2018-11-02T03:11:01.832Z,85.84
2018-11-02T03:16:05.322Z,85.59
2018-11-02T03:21:08.748Z,86.16
2018-11-02T03:26:12.223Z,85.67
2018-11-02T03:31:15.607Z,86.59
2018-11-02T03:36:18.971Z,85.67
2018-11-02T03:41:22.330Z,86.24
2018-11-02T03:46:25.920Z,86.36
2018-11-02T03:51:29.271Z,87.48
2018-11-02T03:56:33.928Z,87.17
2018-11-02T04:01:37.340Z,87.34
2018-11-02T04:06:40.776Z,86.74
2018-11-02T04:11:44.150Z,86.06
2018-11-02T04:16:47.485Z,87.48
2018-11-02T04:21:50.863Z,86.15
2018-11-02T04:26:54.208Z,87.83
2018-11-02T04:31:57.579Z,86.11
2018-11-02T04:37:00.904Z,86.15
2018-11-02T04:42:04.424Z,86.50
2018-11-02T04:47:07.762Z,88.29
2018-11-02T04:52:11.125Z,86.07
2018-11-02T04:57:14.482Z,86.83
2018-11-02T05:02:17.950Z,87.12
2018-11-02T05:07:21.316Z,86.73
2018-11-02T05:12:24.698Z,86.66
2018-11-02T05:17:28.176Z,86.69
2018-11-02T05:22:31.649Z,88.53
2018-11-02T05:27:35.130Z,87.54
2018-11-02T05:32:40.121Z,87.22
2018-11-02T05:37:43.596Z,87.58
2018-11-02T05:42:47.115Z,87.33
2018-11-02T05:47:50.464Z,88.51
2018-11-02T05:52:53.810Z,88.10
2018-11-02T05:57:57.148Z,90.02
2018-11-02T06:03:00.691Z,87.09
2018-11-02T06:08:04.216Z,86.66
2018-11-02T06:13:07.604Z,87.85
2018-11-02T06:18:10.978Z,86.91
2018-11-02T06:23:14.367Z,88.45
2018-11-02T06:28:17.758Z,88.64
2018-11-02T06:33:21.144Z,86.82
2018-11-02T06:38:24.506Z,87.28
2018-11-02T06:43:27.830Z,87.52
2018-11-02T06:48:31.206Z,86.64
2018-11-02T06:53:40.009Z,86.93
2018-11-02T06:58:43.519Z,85.73
2018-11-02T07:03:47.129Z,86.87
2018-11-02T07:08:50.532Z,86.41
2018-11-02T07:13:53.934Z,86.14
2018-11-02T07:18:57.282Z,84.72
2018-11-02T07:24:00.690Z,84.42
2018-11-02T07:29:04.170Z,85.73
2018-11-02T07:34:07.841Z,85.44
2018-11-02T07:39:11.654Z,84.82
2018-11-02T07:44:15.147Z,84.43
2018-11-02T07:49:23.288Z,84.78
2018-11-02T07:54:27.544Z,83.29
2018-11-02T07:59:31.877Z,83.16
2018-11-02T08:04:35.429Z,82.67
2018-11-02T08:09:42.704Z,82.82
2018-11-02T08:14:46.194Z,82.62
2018-11-02T08:19:51.152Z,82.50
2018-11-02T08:24:54.798Z,81.87
2018-11-02T08:29:58.194Z,82.81
2018-11-02T08:35:02.608Z,81.75
2018-11-02T08:40:06.785Z,82.13
2018-11-02T08:45:10.870Z,82.12
2018-11-02T08:50:14.245Z,81.53
2018-11-02T08:55:17.589Z,81.89
2018-11-02T09:00:21.795Z,82.18
2018-11-02T09:05:25.306Z,81.60
2018-11-02T09:10:28.707Z,82.10
2018-11-02T09:15:32.107Z,82.60
2018-11-02T09:20:35.744Z,81.86
2018-11-02T09:25:39.146Z,82.52
2018-11-02T09:30:42.577Z,81.33
2018-11-02T09:35:46.814Z,81.02
2018-11-02T09:40:50.327Z,81.66
2018-11-02T09:45:53.783Z,82.66
2018-11-02T09:50:57.459Z,81.36
2018-11-02T09:56:00.870Z,81.08
2018-11-02T10:01:04.466Z,80.52
2018-11-02T10:06:08.370Z,81.38
2018-11-02T10:11:12.768Z,81.08
2018-11-02T10:16:16.873Z,80.11
2018-11-02T10:21:20.254Z,79.37
2018-11-02T10:26:24.229Z,80.05
2018-11-02T10:31:27.615Z,78.73
2018-11-02T10:36:31.275Z,79.08
2018-11-02T10:41:37.698Z,77.71
2018-11-02T10:46:41.067Z,77.74
2018-11-02T10:51:44.483Z,77.46
2018-11-02T10:56:48.495Z,76.68
2018-11-02T11:01:56.050Z,74.89
2018-11-02T11:06:59.538Z,68.03
2018-11-02T11:12:02.980Z,65.61
2018-11-02T11:17:06.540Z,64.23
2018-11-02T11:22:09.975Z,65.03
2018-11-02T11:27:13.560Z,64.12
2018-11-02T11:32:16.950Z,64.88
2018-11-02T11:37:20.407Z,63.28
2018-11-02T11:42:23.780Z,63.21
2018-11-02T11:47:27.267Z,63.45
2018-11-02T11:52:30.834Z,63.33
2018-11-02T11:57:38.834Z,63.28
2018-11-02T12:02:42.472Z,63.70
2018-11-02T12:07:45.983Z,63.86
2018-11-02T12:12:49.442Z,63.67
2018-11-02T12:17:52.854Z,62.32
2018-11-02T12:22:57.730Z,63.28
2018-11-02T12:28:01.154Z,63.58
2018-11-02T12:33:04.766Z,63.11
2018-11-02T12:38:08.175Z,63.22
2018-11-02T12:43:11.664Z,63.28
2018-11-02T12:48:15.094Z,63.93
2018-11-02T12:53:18.466Z,64.02
2018-11-02T12:58:22.144Z,63.47
2018-11-02T13:03:25.821Z,63.05
2018-11-02T13:08:29.258Z,61.85
2018-11-02T13:13:33.333Z,61.62
2018-11-02T13:18:36.767Z,61.76
2018-11-02T13:23:40.206Z,61.15
2018-11-02T13:28:43.584Z,61.77
2018-11-02T13:33:47.062Z,61.44
2018-11-02T13:38:51.072Z,61.84
2018-11-02T13:43:54.507Z,62.90
2018-11-02T13:48:57.947Z,63.07
2018-11-02T13:54:01.341Z,61.49
2018-11-02T13:59:05.316Z,61.65
2018-11-02T14:04:08.697Z,61.24
2018-11-02T14:09:12.757Z,61.41
2018-11-02T14:14:16.170Z,61.26
2018-11-02T14:19:19.547Z,61.50
2018-11-02T14:24:23.130Z,60.91
2018-11-02T14:29:26.923Z,61.53
2018-11-02T14:34:31.091Z,61.35
2018-11-02T14:39:36.573Z,60.68
2018-11-02T14:44:40.121Z,61.03
2018-11-02T14:49:43.581Z,61.39
2018-11-02T14:54:47.731Z,61.79
2018-11-02T14:59:51.728Z,61.27
2018-11-02T15:04:56.339Z,61.57
2018-11-02T15:10:01.439Z,61.68
2018-11-02T15:15:06.633Z,61.64
2018-11-02T15:20:12.759Z,62.58
2018-11-02T15:25:16.191Z,62.82
2018-11-02T15:30:19.829Z,63.74
2018-11-02T15:35:23.252Z,64.01
2018-11-02T15:40:26.726Z,64.89
2018-11-02T15:45:30.104Z,64.38
2018-11-02T15:50:33.578Z,65.45
2018-11-02T15:55:37.100Z,64.69
2018-11-02T16:00:40.757Z,65.65
2018-11-02T16:05:44.346Z,65.69
2018-11-02T16:10:47.751Z,65.82
2018-11-02T16:15:51.770Z,66.51
2018-11-02T16:20:55.219Z,66.94
2018-11-02T16:25:58.658Z,67.07
2018-11-02T16:31:02.216Z,67.91
2018-11-02T16:36:05.648Z,67.87
2018-11-02T16:41:09.745Z,68.09
2018-11-02T16:46:13.296Z,68.32
2018-11-02T16:51:16.755Z,68.70
2018-11-02T16:56:20.246Z,68.76
2018-11-02T17:01:23.670Z,67.26
2018-11-02T17:06:27.311Z,66.99
2018-11-02T17:11:30.791Z,70.50
2018-11-02T17:16:34.291Z,70.83
2018-11-02T17:21:37.748Z,68.99
2018-11-02T17:26:41.222Z,71.23
2018-11-02T17:31:44.655Z,71.39
2018-11-02T17:36:50.392Z,70.82
2018-11-02T17:41:55.240Z,69.69
2018-11-02T17:46:59.563Z,70.97
2018-11-02T17:52:03.033Z,70.80
2018-11-02T17:57:07.416Z,70.67
2018-11-02T18:02:10.883Z,71.86
2018-11-02T18:07:14.534Z,72.95
2018-11-02T18:12:19.302Z,72.36
2018-11-02T18:17:23.179Z,74.30
2018-11-02T18:22:26.722Z,75.69
2018-11-02T18:27:30.394Z,74.08
2018-11-02T18:32:33.884Z,74.33
2018-11-02T18:37:37.370Z,73.76
2018-11-02T18:42:40.911Z,73.67
2018-11-02T18:47:45.954Z,75.10
2018-11-02T18:52:49.914Z,75.41
2018-11-02T18:57:53.438Z,74.56
2018-11-02T19:02:56.911Z,75.48
2018-11-02T19:08:01.276Z,74.78
2018-11-02T19:13:04.997Z,75.53
2018-11-02T19:18:09.172Z,75.36
2018-11-02T19:23:12.647Z,75.76
2018-11-02T19:28:16.186Z,76.91
2018-11-02T19:33:19.834Z,76.89
2018-11-02T19:38:23.255Z,76.71
2018-11-02T19:43:26.710Z,78.65
2018-11-02T19:48:30.222Z,78.46
2018-11-02T19:53:33.677Z,79.79
2018-11-02T19:58:37.152Z,79.75
2018-11-02T20:03:40.614Z,80.42
2018-11-02T20:08:44.169Z,79.97
2018-11-02T20:13:47.647Z,80.00
2018-11-02T20:18:51.228Z,80.86
2018-11-02T20:23:55.396Z,80.77
2018-11-02T20:28:58.970Z,79.64
2018-11-02T20:34:02.488Z,80.18
2018-11-02T20:39:09.397Z,78.88
2018-11-02T20:44:12.744Z,80.39
2018-11-02T20:49:18.179Z,79.71
2018-11-02T20:54:21.650Z,78.87
2018-11-02T20:59:25.681Z,79.43
2018-11-02T21:04:29.159Z,79.00
2018-11-02T21:09:33.469Z,80.00
2018-11-02T21:14:36.885Z,80.69
2018-11-02T21:19:42.685Z,80.09
2018-11-02T21:24:46.803Z,81.38
2018-11-02T21:29:50.414Z,80.97
2018-11-02T21:35:05.162Z,81.81
2018-11-02T21:40:11.622Z,81.97
2018-11-02T21:45:17.008Z,81.90
2018-11-02T21:50:20.735Z,81.74
2018-11-02T21:55:24.137Z,81.66
2018-11-02T22:00:27.571Z,81.44
2018-11-02T22:05:30.985Z,82.89
2018-11-02T22:10:34.430Z,81.97
2018-11-02T22:15:37.835Z,82.33
2018-11-02T22:20:41.363Z,82.87
2018-11-02T22:25:44.732Z,82.83
2018-11-02T22:30:48.180Z,83.15
2018-11-02T22:35:51.638Z,82.29
2018-11-02T22:40:55.011Z,83.10
2018-11-02T22:45:58.390Z,83.31
2018-11-02T22:51:01.831Z,84.40
2018-11-02T22:56:05.481Z,84.29
2018-11-02T23:01:14.290Z,83.50
2018-11-02T23:06:17.914Z,83.91
2018-11-02T23:11:21.351Z,84.04
2018-11-02T23:16:24.738Z,83.95
2018-11-02T23:21:28.230Z,84.71
2018-11-02T23:26:31.963Z,84.49
2018-11-02T23:31:35.638Z,84.63
2018-11-02T23:36:38.994Z,84.84
2018-11-02T23:41:42.386Z,85.13
2018-11-02T23:46:45.781Z,85.12
2018-11-02T23:51:49.177Z,85.12
2018-11-02T23:56:52.570Z,85.72
